createdAt,value
2018-07-24T00:07:12.587Z,43.0
2018-07-24T00:17:27.905Z,43.8
2018-07-24T00:27:43.352Z,44.1
2018-07-24T00:37:57.130Z,44.8
2018-07-24T00:48:10.547Z,44.3
2018-07-24T00:58:22.317Z,45.6
2018-07-24T01:08:36.177Z,44.6
2018-07-24T01:18:47.579Z,44.2
2018-07-24T01:30:07.379Z,45.0
2018-07-24T01:40:21.076Z,45.5
2018-07-24T01:50:35.068Z,44.8
2018-07-24T02:00:49.704Z,45.9
2018-07-24T02:11:03.562Z,45.3
2018-07-24T02:21:18.071Z,45.2
2018-07-24T02:31:32.062Z,45.9
2018-07-24T02:41:43.419Z,46.0
2018-07-24T02:51:54.455Z,46.2
2018-07-24T03:02:42.105Z,45.4
2018-07-24T03:12:56.361Z,46.0
2018-07-24T03:23:10.930Z,45.0
2018-07-24T03:33:24.929Z,44.9
2018-07-24T03:43:39.729Z,45.6
2018-07-24T03:53:53.483Z,46.3
2018-07-24T04:04:08.363Z,44.3
2018-07-24T04:14:22.078Z,44.4
2018-07-24T04:24:36.283Z,44.0
2018-07-24T04:35:21.816Z,44.0
2018-07-24T04:46:07.543Z,45.0
2018-07-24T04:56:21.948Z,44.2
2018-07-24T05:06:36.255Z,44.6
2018-07-24T05:16:50.547Z,45.5
2018-07-24T05:27:03.054Z,45.6
2018-07-24T05:37:14.798Z,46.2
2018-07-24T05:47:29.377Z,46.0
2018-07-24T05:58:14.868Z,46.7
2018-07-24T06:09:00.379Z,46.7
2018-07-24T06:19:48.100Z,47.0
2018-07-24T06:30:00.009Z,47.1
2018-07-24T06:40:13.982Z,48.2
2018-07-24T06:50:59.227Z,48.1
2018-07-24T07:01:44.324Z,48.8
2018-07-24T07:11:55.536Z,49.2
2018-07-24T07:22:41.133Z,49.0
2018-07-24T07:32:52.174Z,49.5
2018-07-24T07:43:06.559Z,48.0
2018-07-24T07:53:18.162Z,43.3
2018-07-24T08:03:33.292Z,39.6
2018-07-24T08:13:46.980Z,36.3
2018-07-24T08:23:58.856Z,33.9
2018-07-24T08:34:44.251Z,32.1
2018-07-24T08:45:29.792Z,30.3
2018-07-24T08:55:43.453Z,29.3
2018-07-24T09:05:54.404Z,28.6
2018-07-24T09:16:05.685Z,27.4
2018-07-24T09:26:19.784Z,26.7
2018-07-24T09:36:33.881Z,26.2
2018-07-24T09:46:48.015Z,26.2
2018-07-24T09:57:01.329Z,26.7
2018-07-24T10:07:15.535Z,25.7
2018-07-24T10:18:00.586Z,25.2
2018-07-24T10:28:11.867Z,24.4
2018-07-24T10:38:57.626Z,23.9
2018-07-24T10:49:08.822Z,23.1
2018-07-24T10:59:20.483Z,21.9
2018-07-24T11:09:32.356Z,22.0
2018-07-24T11:19:46.320Z,21.3
2018-07-24T11:29:59.758Z,20.1
2018-07-24T11:40:13.755Z,20.8
2018-07-24T11:50:27.226Z,19.8
2018-07-24T12:00:41.685Z,20.2
2018-07-24T12:10:55.935Z,20.3
2018-07-24T12:21:06.998Z,20.0
2018-07-24T12:48:23.128Z,20.4
2018-07-24T13:00:18.900Z,21.5
2018-07-24T13:23:10.327Z,22.0
2018-07-24T13:34:38.676Z,21.1
2018-07-24T13:44:54.779Z,20.4
2018-07-24T13:55:47.516Z,20.3
2018-07-24T14:32:38.139Z,20.3
2018-07-24T15:22:31.050Z,19.2
2018-07-24T15:36:03.819Z,19.8
2018-07-24T15:51:28.284Z,20.0
2018-07-24T16:05:07.061Z,20.7
2018-07-24T16:47:06.585Z,21.7
2018-07-24T16:58:59.383Z,22.1
2018-07-24T17:09:13.841Z,22.7
2018-07-24T17:19:27.425Z,23.0
2018-07-24T17:29:41.638Z,23.4
2018-07-24T17:40:44.366Z,23.7
2018-07-24T17:58:23.005Z,24.2
2018-07-24T18:10:09.352Z,24.8
2018-07-24T18:35:07.976Z,25.5
2018-07-24T18:59:04.481Z,27.4
2018-07-24T19:09:52.468Z,28.0
2018-07-24T19:21:41.170Z,28.4
2018-07-24T19:31:54.500Z,29.3
2018-07-24T19:42:07.981Z,29.6
2018-07-24T19:52:22.043Z,30.1
2018-07-24T20:02:36.257Z,30.8
2018-07-24T20:13:21.782Z,31.1
2018-07-24T20:23:42.607Z,31.3
2018-07-24T20:33:54.628Z,32.1
2018-07-24T20:44:08.745Z,32.8
2018-07-24T20:54:55.422Z,33.4
2018-07-24T21:05:08.761Z,33.3
2018-07-24T21:15:23.565Z,33.6
2018-07-24T21:25:37.279Z,34.6
2018-07-24T21:35:52.030Z,35.4
2018-07-24T21:46:06.040Z,35.9
2018-07-24T21:56:51.719Z,35.8
2018-07-24T22:07:37.154Z,36.0
2018-07-24T22:17:51.197Z,36.2
2018-07-24T22:28:02.959Z,36.2
2018-07-24T22:38:17.926Z,36.8
2018-07-24T22:48:31.466Z,37.1
2018-07-24T22:58:45.566Z,37.1
2018-07-24T23:09:00.220Z,37.5
2018-07-24T23:19:14.090Z,38.0
2018-07-24T23:29:28.253Z,38.1
2018-07-24T23:39:42.441Z,39.7
2018-07-24T23:49:56.654Z,40.5
